Alaska Titan — WDE4789 — position and weather

sailwx.info

Track history (hours):
 
Tides and Currents Weather Stations Pressure Air Temp Water Temp Dewpoint Dewpoint Depression Visibility Wind Speed Wind Dir Waves Ship Positions

Alaska Titan

Owner: WESTERN TOWBOAT CO, Seattle, WA. More information available from US FCC via Universal Licensing System and Coast Guard Vessel Documentation Center.

Last reported at 2016-Feb-04 16:33 UTC. Time now 2016-Feb-06 13:36 UTC.
Position N 47°40' W 122°24'.

Length 40 m.

Type: Tow > 200 m length. MMSI: 367357890.

Date/timePositionNaut miles runAvg speedWind from/ knotsBaromVisibWave heightAir tempDewpointWater temp
2016-Feb-04 16:33N 47°40' W 122°24'5 4.7
2016-Feb-04 15:33N 47°36' W 122°21'0 0.4
2016-Feb-04 14:33N 47°36' W 122°21'6 5.9
2016-Feb-04 13:33N 47°40' W 122°28'6 5.8
2016-Feb-04 12:33N 47°45' W 122°27'6 5.9
2016-Feb-04 11:33N 47°51' W 122°29'5 5.0
2016-Feb-04 10:33N 47°56' W 122°32'6 5.6
2016-Feb-04 09:33N 47°60' W 122°37'23 5.7
2016-Feb-04 05:33N 48°22' W 122°46'6 5.9
2016-Feb-04 04:33N 48°28' W 122°44'6 5.6
2016-Feb-04 03:33N 48°34' W 122°45'6 5.9
2016-Feb-04 02:34N 48°39' W 122°43'6 6.0
2016-Feb-04 01:34N 48°45' W 122°47'6 6.0
2016-Feb-04 00:33N 48°48' W 122°55'6 6.0
2016-Feb-03 23:33N 48°51' W 123°02'6 6.1
2016-Feb-03 22:33N 48°55' W 123°09'6 6.2
2016-Feb-03 21:33N 48°59' W 123°17'6 6.3
2016-Feb-03 20:33N 49°03' W 123°24'7 6.6
2016-Feb-03 19:33N 49°07' W 123°32'9 8.6
2016-Feb-03 18:32N 49°13' W 123°42'8 8.7
2016-Feb-03 17:33N 49°19' W 123°52'8 8.5
2016-Feb-03 16:34N 49°25' W 124°01'8 8.5
2016-Feb-03 15:33N 49°30' W 124°11'9 8.6
2016-Feb-03 14:33N 49°34' W 124°23'8 8.4
2016-Feb-03 13:33N 49°38' W 124°34'9 8.8
2016-Feb-03 12:33N 49°44' W 124°44'9 9.4
2016-Feb-03 11:33N 49°50' W 124°55'10 9.6
2016-Feb-03 10:33N 49°56' W 125°07'9 9.0
2016-Feb-03 09:33N 50°04' W 125°15'9 9.3
2016-Feb-03 08:34N 50°12' W 125°22'70 8.5
2016-Feb-03 00:21N 50°43' W 127°00'7 8.1
2016-Feb-02 23:32N 50°46' W 127°10'8 8.1
2016-Feb-02 22:33N 50°52' W 127°19'8 8.0
2016-Feb-02 21:33N 50°57' W 127°28'8 8.1
2016-Feb-02 20:34N 51°02' W 127°38'8 8.4
2016-Feb-02 19:33N 51°08' W 127°48'57 9.3
2016-Feb-02 13:26N 52°04' W 127°54'9 9.5
2016-Feb-02 12:31N 52°13' W 127°54'8 8.2
2016-Feb-02 11:32N 52°19' W 128°03'9 9.1
2016-Feb-02 10:33N 52°15' W 128°16'  
2016-Jan-31 04:05N 58°13' W 135°28'6 9.5
2016-Jan-31 03:27N 58°16' W 135°38'8 8.6
2016-Jan-31 02:33N 58°17' W 135°53'23 8.8
2016-Jan-31 00:00N 58°06' W 136°30'53 8.9 270 / 51010.0 5.4 7.1
2016-Jan-30 18:00N 58°36' W 137°54'110 9.2 310 / 181007.0 5.4 0.5 7.2
2016-Jan-30 06:00N 59°30' W 141°00'150 8.3 010 / 121000.5 5.4 4.4
2016-Jan-29 12:00N 59°54' W 145°54'38 6.4 120 / 10991.0 5.4 1.0 5.9
2016-Jan-29 06:00N 60°18' W 146°54'29 2.4 170 / 15986.5 5.4 6.1
2016-Jan-28 18:00N 60°30' W 147°48'3 0.5 070 / 22974.0 2.2 0.5 5.0
2016-Jan-28 12:00N 60°30' W 147°54'6 0.3 080 / 20975.0 1.5 5.3
2016-Jan-27 18:00N 60°30' W 147°42'3 0.2 060 / 25974.5 2.2 1.0 8.3
2016-Jan-27 06:00N 60°30' W 147°48'3 0.2 080 / 25995.0 5.4 0.5 6.1
2016-Jan-26 18:00N 60°30' W 147°42'   300 / 8984.0 0.1 5.6
Track history (hours):
 
Tides and Currents Weather Stations Pressure Air Temp Water Temp Dewpoint Dewpoint Depression Visibility Wind Speed Wind Dir Waves Ship Positions

Alaska Titan

Owner: WESTERN TOWBOAT CO, Seattle, WA. More information available from US FCC via Universal Licensing System and Coast Guard Vessel Documentation Center.

Last reported at 2016-Feb-04 16:33 UTC. Time now 2016-Feb-06 13:36 UTC.
Position N 47°40' W 122°24'.

Length 40 m.

Type: Tow > 200 m length. MMSI: 367357890.

Date/timePositionNaut miles runAvg speedWind from/ knotsBaromVisibWave heightAir tempDewpointWater temp
2016-Feb-04 16:33N 47°40' W 122°24'5 4.7
2016-Feb-04 15:33N 47°36' W 122°21'0 0.4
2016-Feb-04 14:33N 47°36' W 122°21'6 5.9
2016-Feb-04 13:33N 47°40' W 122°28'6 5.8
2016-Feb-04 12:33N 47°45' W 122°27'6 5.9
2016-Feb-04 11:33N 47°51' W 122°29'5 5.0
2016-Feb-04 10:33N 47°56' W 122°32'6 5.6
2016-Feb-04 09:33N 47°60' W 122°37'23 5.7
2016-Feb-04 05:33N 48°22' W 122°46'6 5.9
2016-Feb-04 04:33N 48°28' W 122°44'6 5.6
2016-Feb-04 03:33N 48°34' W 122°45'6 5.9
2016-Feb-04 02:34N 48°39' W 122°43'6 6.0
2016-Feb-04 01:34N 48°45' W 122°47'6 6.0
2016-Feb-04 00:33N 48°48' W 122°55'6 6.0
2016-Feb-03 23:33N 48°51' W 123°02'6 6.1
2016-Feb-03 22:33N 48°55' W 123°09'6 6.2
2016-Feb-03 21:33N 48°59' W 123°17'6 6.3
2016-Feb-03 20:33N 49°03' W 123°24'7 6.6
2016-Feb-03 19:33N 49°07' W 123°32'9 8.6
2016-Feb-03 18:32N 49°13' W 123°42'8 8.7
2016-Feb-03 17:33N 49°19' W 123°52'8 8.5
2016-Feb-03 16:34N 49°25' W 124°01'8 8.5
2016-Feb-03 15:33N 49°30' W 124°11'9 8.6
2016-Feb-03 14:33N 49°34' W 124°23'8 8.4
2016-Feb-03 13:33N 49°38' W 124°34'9 8.8
2016-Feb-03 12:33N 49°44' W 124°44'9 9.4
2016-Feb-03 11:33N 49°50' W 124°55'10 9.6
2016-Feb-03 10:33N 49°56' W 125°07'9 9.0
2016-Feb-03 09:33N 50°04' W 125°15'9 9.3
2016-Feb-03 08:34N 50°12' W 125°22'70 8.5
2016-Feb-03 00:21N 50°43' W 127°00'7 8.1
2016-Feb-02 23:32N 50°46' W 127°10'8 8.1
2016-Feb-02 22:33N 50°52' W 127°19'8 8.0
2016-Feb-02 21:33N 50°57' W 127°28'8 8.1
2016-Feb-02 20:34N 51°02' W 127°38'8 8.4
2016-Feb-02 19:33N 51°08' W 127°48'57 9.3
2016-Feb-02 13:26N 52°04' W 127°54'9 9.5
2016-Feb-02 12:31N 52°13' W 127°54'8 8.2
2016-Feb-02 11:32N 52°19' W 128°03'9 9.1
2016-Feb-02 10:33N 52°15' W 128°16'  
2016-Jan-31 04:05N 58°13' W 135°28'6 9.5
2016-Jan-31 03:27N 58°16' W 135°38'8 8.6
2016-Jan-31 02:33N 58°17' W 135°53'23 8.8
2016-Jan-31 00:00N 58°06' W 136°30'53 8.9 270 / 51010.0 5.4 7.1
2016-Jan-30 18:00N 58°36' W 137°54'110 9.2 310 / 181007.0 5.4 0.5 7.2
2016-Jan-30 06:00N 59°30' W 141°00'150 8.3 010 / 121000.5 5.4 4.4
2016-Jan-29 12:00N 59°54' W 145°54'38 6.4 120 / 10991.0 5.4 1.0 5.9
2016-Jan-29 06:00N 60°18' W 146°54'29 2.4 170 / 15986.5 5.4 6.1
2016-Jan-28 18:00N 60°30' W 147°48'3 0.5 070 / 22974.0 2.2 0.5 5.0
2016-Jan-28 12:00N 60°30' W 147°54'6 0.3 080 / 20975.0 1.5 5.3
2016-Jan-27 18:00N 60°30' W 147°42'3 0.2 060 / 25974.5 2.2 1.0 8.3
2016-Jan-27 06:00N 60°30' W 147°48'3 0.2 080 / 25995.0 5.4 0.5 6.1
2016-Jan-26 18:00N 60°30' W 147°42'   300 / 8984.0 0.1 5.6

Dump ship's entire track history